sensor_id;sensor_type;location;lat;lon;timestamp;P1;durP1;ratioP1;P2;durP2;ratioP2
82265;SDS011;71866;53.340;-6.308;2024-01-15T00:00:22;7.05;;;1.98;;
82265;SDS011;71866;53.340;-6.308;2024-01-15T00:02:50;10.48;;;2.25;;
82265;SDS011;71866;53.340;-6.308;2024-01-15T00:05:17;5.68;;;1.88;;
82265;SDS011;71866;53.340;-6.308;2024-01-15T00:07:44;9.02;;;2.13;;
82265;SDS011;71866;53.340;-6.308;2024-01-15T00:10:11;6.18;;;1.77;;
82265;SDS011;71866;53.340;-6.308;2024-01-15T00:12:38;4.18;;;1.60;;
82265;SDS011;71866;53.340;-6.308;2024-01-15T00:15:05;7.22;;;2.00;;
82265;SDS011;71866;53.340;-6.308;2024-01-15T00:17:33;9.00;;;2.17;;
82265;SDS011;71866;53.340;-6.308;2024-01-15T00:20:00;4.85;;;1.35;;
82265;SDS011;71866;53.340;-6.308;2024-01-15T00:22:27;6.30;;;1.63;;
82265;SDS011;71866;53.340;-6.308;2024-01-15T00:24:54;4.28;;;1.30;;
82265;SDS011;71866;53.340;-6.308;2024-01-15T00:27:21;4.43;;;1.60;;
82265;SDS011;71866;53.340;-6.308;2024-01-15T00:29:49;8.23;;;1.85;;
82265;SDS011;71866;53.340;-6.308;2024-01-15T00:32:16;4.65;;;1.50;;
82265;SDS011;71866;53.340;-6.308;2024-01-15T00:34:43;7.28;;;1.60;;
82265;SDS011;71866;53.340;-6.308;2024-01-15T00:37:10;5.07;;;1.50;;
82265;SDS011;71866;53.340;-6.308;2024-01-15T00:39:38;7.25;;;1.55;;
82265;SDS011;71866;53.340;-6.308;2024-01-15T00:42:05;8.13;;;2.00;;
82265;SDS011;71866;53.340;-6.308;2024-01-15T00:44:31;5.72;;;1.50;;
82265;SDS011;71866;53.340;-6.308;2024-01-15T00:46:59;6.00;;;1.70;;
82265;SDS011;71866;53.340;-6.308;2024-01-15T00:49:27;4.50;;;1.90;;
82265;SDS011;71866;53.340;-6.308;2024-01-15T00:51:55;8.38;;;1.63;;
82265;SDS011;71866;53.340;-6.308;2024-01-15T00:54:26;5.97;;;1.60;;
82265;SDS011;71866;53.340;-6.308;2024-01-15T00:56:54;7.30;;;1.50;;
82265;SDS011;71866;53.340;-6.308;2024-01-15T00:59:20;4.63;;;1.40;;
82265;SDS011;71866;53.340;-6.308;2024-01-15T01:01:48;5.50;;;1.80;;
82265;SDS011;71866;53.340;-6.308;2024-01-15T01:04:16;5.15;;;1.60;;
82265;SDS011;71866;53.340;-6.308;2024-01-15T01:06:44;6.50;;;1.50;;
82265;SDS011;71866;53.340;-6.308;2024-01-15T01:09:10;5.53;;;1.67;;
82265;SDS011;71866;53.340;-6.308;2024-01-15T01:11:38;4.90;;;1.40;;
82265;SDS011;71866;53.340;-6.308;2024-01-15T01:14:05;5.15;;;1.52;;
82265;SDS011;71866;53.340;-6.308;2024-01-15T01:16:33;5.97;;;1.60;;
82265;SDS011;71866;53.340;-6.308;2024-01-15T01:18:59;5.60;;;1.80;;
82265;SDS011;71866;53.340;-6.308;2024-01-15T01:21:28;7.38;;;1.70;;
82265;SDS011;71866;53.340;-6.308;2024-01-15T01:23:55;2.78;;;1.65;;
82265;SDS011;71866;53.340;-6.308;2024-01-15T01:26:21;3.45;;;1.70;;
82265;SDS011;71866;53.340;-6.308;2024-01-15T01:28:49;6.80;;;2.13;;
82265;SDS011;71866;53.340;-6.308;2024-01-15T01:31:16;5.60;;;1.42;;
82265;SDS011;71866;53.340;-6.308;2024-01-15T01:33:43;6.75;;;1.45;;
82265;SDS011;71866;53.340;-6.308;2024-01-15T01:36:10;5.57;;;1.60;;
82265;SDS011;71866;53.340;-6.308;2024-01-15T01:38:39;7.68;;;1.70;;
82265;SDS011;71866;53.340;-6.308;2024-01-15T01:41:07;3.67;;;1.40;;
82265;SDS011;71866;53.340;-6.308;2024-01-15T01:43:34;6.00;;;1.52;;
82265;SDS011;71866;53.340;-6.308;2024-01-15T01:46:01;4.38;;;1.60;;
82265;SDS011;71866;53.340;-6.308;2024-01-15T01:48:29;3.83;;;1.40;;
82265;SDS011;71866;53.340;-6.308;2024-01-15T01:50:58;5.63;;;1.50;;
82265;SDS011;71866;53.340;-6.308;2024-01-15T01:53:26;5.00;;;1.58;;
82265;SDS011;71866;53.340;-6.308;2024-01-15T01:55:55;3.83;;;1.52;;
82265;SDS011;71866;53.340;-6.308;2024-01-15T01:58:24;6.00;;;1.35;;
82265;SDS011;71866;53.340;-6.308;2024-01-15T02:00:57;4.32;;;1.30;;
82265;SDS011;71866;53.340;-6.308;2024-01-15T02:03:29;7.43;;;1.50;;
82265;SDS011;71866;53.340;-6.308;2024-01-15T02:06:00;5.78;;;1.60;;
82265;SDS011;71866;53.340;-6.308;2024-01-15T02:08:28;7.40;;;1.63;;
82265;SDS011;71866;53.340;-6.308;2024-01-15T02:10:56;3.60;;;1.30;;
82265;SDS011;71866;53.340;-6.308;2024-01-15T02:13:23;4.80;;;1.30;;
82265;SDS011;71866;53.340;-6.308;2024-01-15T02:15:51;7.05;;;1.60;;
82265;SDS011;71866;53.340;-6.308;2024-01-15T02:18:20;3.35;;;1.02;;
82265;SDS011;71866;53.340;-6.308;2024-01-15T02:20:47;4.78;;;0.90;;
82265;SDS011;71866;53.340;-6.308;2024-01-15T02:23:15;3.95;;;0.95;;
82265;SDS011;71866;53.340;-6.308;2024-01-15T02:25:45;5.47;;;1.35;;
82265;SDS011;71866;53.340;-6.308;2024-01-15T02:28:14;2.90;;;1.10;;
82265;SDS011;71866;53.340;-6.308;2024-01-15T02:30:43;5.03;;;1.10;;
82265;SDS011;71866;53.340;-6.308;2024-01-15T02:33:11;5.70;;;1.00;;
82265;SDS011;71866;53.340;-6.308;2024-01-15T02:35:39;6.05;;;1.20;;
82265;SDS011;71866;53.340;-6.308;2024-01-15T02:38:06;4.85;;;1.00;;
82265;SDS011;71866;53.340;-6.308;2024-01-15T02:40:35;4.65;;;1.23;;
82265;SDS011;71866;53.340;-6.308;2024-01-15T02:43:02;2.63;;;0.90;;
82265;SDS011;71866;53.340;-6.308;2024-01-15T02:45:30;3.00;;;0.98;;
82265;SDS011;71866;53.340;-6.308;2024-01-15T02:47:57;3.58;;;1.05;;
82265;SDS011;71866;53.340;-6.308;2024-01-15T02:50:24;3.65;;;0.98;;
82265;SDS011;71866;53.340;-6.308;2024-01-15T02:52:52;2.55;;;1.00;;
82265;SDS011;71866;53.340;-6.308;2024-01-15T02:55:19;1.55;;;0.73;;
82265;SDS011;71866;53.340;-6.308;2024-01-15T02:57:46;3.92;;;1.00;;
82265;SDS011;71866;53.340;-6.308;2024-01-15T03:00:13;2.33;;;0.90;;
82265;SDS011;71866;53.340;-6.308;2024-01-15T03:02:40;1.95;;;0.70;;
82265;SDS011;71866;53.340;-6.308;2024-01-15T03:05:12;1.48;;;0.57;;
82265;SDS011;71866;53.340;-6.308;2024-01-15T03:07:40;3.20;;;0.82;;
82265;SDS011;71866;53.340;-6.308;2024-01-15T03:10:07;7.70;;;0.93;;
82265;SDS011;71866;53.340;-6.308;2024-01-15T03:12:34;2.40;;;0.80;;
82265;SDS011;71866;53.340;-6.308;2024-01-15T03:15:02;3.10;;;0.95;;
82265;SDS011;71866;53.340;-6.308;2024-01-15T03:17:29;7.15;;;1.10;;
82265;SDS011;71866;53.340;-6.308;2024-01-15T03:19:57;3.38;;;0.90;;
82265;SDS011;71866;53.340;-6.308;2024-01-15T03:22:24;2.33;;;0.93;;
82265;SDS011;71866;53.340;-6.308;2024-01-15T03:24:52;3.28;;;0.75;;
82265;SDS011;71866;53.340;-6.308;2024-01-15T03:27:20;3.88;;;1.17;;
82265;SDS011;71866;53.340;-6.308;2024-01-15T03:29:47;4.13;;;0.80;;
82265;SDS011;71866;53.340;-6.308;2024-01-15T03:32:14;1.83;;;0.80;;
82265;SDS011;71866;53.340;-6.308;2024-01-15T03:34:41;5.80;;;0.98;;
82265;SDS011;71866;53.340;-6.308;2024-01-15T03:37:08;5.25;;;1.13;;
82265;SDS011;71866;53.340;-6.308;2024-01-15T03:39:36;4.25;;;0.95;;
82265;SDS011;71866;53.340;-6.308;2024-01-15T03:42:03;3.75;;;0.85;;
82265;SDS011;71866;53.340;-6.308;2024-01-15T03:44:31;2.80;;;0.75;;
82265;SDS011;71866;53.340;-6.308;2024-01-15T03:46:58;5.97;;;0.77;;
82265;SDS011;71866;53.340;-6.308;2024-01-15T03:49:24;3.70;;;0.80;;
82265;SDS011;71866;53.340;-6.308;2024-01-15T03:51:52;2.67;;;0.63;;
82265;SDS011;71866;53.340;-6.308;2024-01-15T03:54:19;2.38;;;0.90;;
82265;SDS011;71866;53.340;-6.308;2024-01-15T03:56:46;2.83;;;0.80;;
82265;SDS011;71866;53.340;-6.308;2024-01-15T03:59:14;2.53;;;0.65;;
82265;SDS011;71866;53.340;-6.308;2024-01-15T04:01:41;4.70;;;0.70;;
82265;SDS011;71866;53.340;-6.308;2024-01-15T04:04:08;1.30;;;0.80;;
82265;SDS011;71866;53.340;-6.308;2024-01-15T04:06:35;4.78;;;0.90;;
82265;SDS011;71866;53.340;-6.308;2024-01-15T04:09:02;2.78;;;0.80;;
82265;SDS011;71866;53.340;-6.308;2024-01-15T04:11:30;2.65;;;0.80;;
82265;SDS011;71866;53.340;-6.308;2024-01-15T04:13:56;4.32;;;0.82;;
82265;SDS011;71866;53.340;-6.308;2024-01-15T04:16:24;2.80;;;0.60;;
82265;SDS011;71866;53.340;-6.308;2024-01-15T04:18:50;5.32;;;0.70;;
82265;SDS011;71866;53.340;-6.308;2024-01-15T04:21:17;3.78;;;0.77;;
82265;SDS011;71866;53.340;-6.308;2024-01-15T04:23:45;3.30;;;1.00;;
82265;SDS011;71866;53.340;-6.308;2024-01-15T04:26:13;2.65;;;0.70;;
82265;SDS011;71866;53.340;-6.308;2024-01-15T04:28:40;4.05;;;0.90;;
82265;SDS011;71866;53.340;-6.308;2024-01-15T04:31:07;3.08;;;0.55;;
82265;SDS011;71866;53.340;-6.308;2024-01-15T04:33:34;1.17;;;0.50;;
82265;SDS011;71866;53.340;-6.308;2024-01-15T04:36:04;4.40;;;0.70;;
82265;SDS011;71866;53.340;-6.308;2024-01-15T04:38:31;5.00;;;0.60;;
82265;SDS011;71866;53.340;-6.308;2024-01-15T04:40:58;5.10;;;0.90;;
82265;SDS011;71866;53.340;-6.308;2024-01-15T04:43:25;6.30;;;0.82;;
82265;SDS011;71866;53.340;-6.308;2024-01-15T04:45:51;2.97;;;0.60;;
82265;SDS011;71866;53.340;-6.308;2024-01-15T04:48:19;3.70;;;0.85;;
82265;SDS011;71866;53.340;-6.308;2024-01-15T04:50:46;3.42;;;0.70;;
82265;SDS011;71866;53.340;-6.308;2024-01-15T04:53:13;3.40;;;0.63;;
82265;SDS011;71866;53.340;-6.308;2024-01-15T04:55:40;1.05;;;0.50;;
82265;SDS011;71866;53.340;-6.308;2024-01-15T04:58:08;3.30;;;0.65;;
82265;SDS011;71866;53.340;-6.308;2024-01-15T05:00:34;4.57;;;0.75;;
82265;SDS011;71866;53.340;-6.308;2024-01-15T05:03:01;5.25;;;0.77;;
82265;SDS011;71866;53.340;-6.308;2024-01-15T05:05:28;4.28;;;0.60;;
82265;SDS011;71866;53.340;-6.308;2024-01-15T05:07:55;5.63;;;0.70;;
82265;SDS011;71866;53.340;-6.308;2024-01-15T05:10:23;4.07;;;0.90;;
82265;SDS011;71866;53.340;-6.308;2024-01-15T05:12:49;2.58;;;0.35;;
82265;SDS011;71866;53.340;-6.308;2024-01-15T05:15:18;1.30;;;0.45;;
82265;SDS011;71866;53.340;-6.308;2024-01-15T05:17:45;5.68;;;0.68;;
82265;SDS011;71866;53.340;-6.308;2024-01-15T05:20:11;3.05;;;0.52;;
82265;SDS011;71866;53.340;-6.308;2024-01-15T05:22:39;4.38;;;0.85;;
82265;SDS011;71866;53.340;-6.308;2024-01-15T05:25:06;2.60;;;0.32;;
82265;SDS011;71866;53.340;-6.308;2024-01-15T05:27:34;3.58;;;0.52;;
82265;SDS011;71866;53.340;-6.308;2024-01-15T05:30:00;2.35;;;0.90;;
82265;SDS011;71866;53.340;-6.308;2024-01-15T05:32:28;5.97;;;0.80;;
82265;SDS011;71866;53.340;-6.308;2024-01-15T05:34:54;3.88;;;0.52;;
82265;SDS011;71866;53.340;-6.308;2024-01-15T05:37:22;1.38;;;0.40;;
82265;SDS011;71866;53.340;-6.308;2024-01-15T05:39:50;6.15;;;0.60;;
82265;SDS011;71866;53.340;-6.308;2024-01-15T05:42:17;6.10;;;1.10;;
82265;SDS011;71866;53.340;-6.308;2024-01-15T05:44:44;3.30;;;0.50;;
82265;SDS011;71866;53.340;-6.308;2024-01-15T05:47:13;3.70;;;0.85;;
82265;SDS011;71866;53.340;-6.308;2024-01-15T05:49:39;3.85;;;0.60;;
82265;SDS011;71866;53.340;-6.308;2024-01-15T05:52:07;5.20;;;0.90;;
82265;SDS011;71866;53.340;-6.308;2024-01-15T05:54:34;3.47;;;0.70;;
82265;SDS011;71866;53.340;-6.308;2024-01-15T05:57:01;2.08;;;0.50;;
82265;SDS011;71866;53.340;-6.308;2024-01-15T05:59:28;4.45;;;0.70;;
82265;SDS011;71866;53.340;-6.308;2024-01-15T06:01:55;1.65;;;0.57;;
82265;SDS011;71866;53.340;-6.308;2024-01-15T06:04:22;3.65;;;0.82;;
82265;SDS011;71866;53.340;-6.308;2024-01-15T06:06:49;3.65;;;0.65;;
82265;SDS011;71866;53.340;-6.308;2024-01-15T06:09:16;2.50;;;0.63;;
82265;SDS011;71866;53.340;-6.308;2024-01-15T06:11:44;3.45;;;0.80;;
82265;SDS011;71866;53.340;-6.308;2024-01-15T06:14:10;2.85;;;0.60;;
82265;SDS011;71866;53.340;-6.308;2024-01-15T06:16:38;4.57;;;0.65;;
82265;SDS011;71866;53.340;-6.308;2024-01-15T06:19:05;5.18;;;1.00;;
82265;SDS011;71866;53.340;-6.308;2024-01-15T06:21:31;2.50;;;0.60;;
82265;SDS011;71866;53.340;-6.308;2024-01-15T06:23:59;2.35;;;0.82;;
82265;SDS011;71866;53.340;-6.308;2024-01-15T06:26:26;5.07;;;0.60;;
82265;SDS011;71866;53.340;-6.308;2024-01-15T06:28:53;5.10;;;0.70;;
82265;SDS011;71866;53.340;-6.308;2024-01-15T06:31:22;5.70;;;0.82;;
82265;SDS011;71866;53.340;-6.308;2024-01-15T06:33:50;4.55;;;0.90;;
82265;SDS011;71866;53.340;-6.308;2024-01-15T06:36:17;2.05;;;0.73;;
82265;SDS011;71866;53.340;-6.308;2024-01-15T06:38:44;1.67;;;0.50;;
82265;SDS011;71866;53.340;-6.308;2024-01-15T06:41:12;2.60;;;0.80;;
82265;SDS011;71866;53.340;-6.308;2024-01-15T06:43:40;3.63;;;0.55;;
82265;SDS011;71866;53.340;-6.308;2024-01-15T06:46:06;2.45;;;0.65;;
82265;SDS011;71866;53.340;-6.308;2024-01-15T06:48:34;2.97;;;0.70;;
82265;SDS011;71866;53.340;-6.308;2024-01-15T06:51:02;2.40;;;0.60;;
82265;SDS011;71866;53.340;-6.308;2024-01-15T06:53:30;2.83;;;0.50;;
82265;SDS011;71866;53.340;-6.308;2024-01-15T06:55:57;1.55;;;0.75;;
82265;SDS011;71866;53.340;-6.308;2024-01-15T06:58:24;2.95;;;0.63;;
82265;SDS011;71866;53.340;-6.308;2024-01-15T07:00:52;2.83;;;0.88;;
82265;SDS011;71866;53.340;-6.308;2024-01-15T07:03:18;3.42;;;0.85;;
82265;SDS011;71866;53.340;-6.308;2024-01-15T07:05:46;3.97;;;0.60;;
82265;SDS011;71866;53.340;-6.308;2024-01-15T07:08:13;5.15;;;0.73;;
82265;SDS011;71866;53.340;-6.308;2024-01-15T07:10:40;5.40;;;0.95;;
82265;SDS011;71866;53.340;-6.308;2024-01-15T07:13:07;4.28;;;0.60;;
82265;SDS011;71866;53.340;-6.308;2024-01-15T07:15:34;3.15;;;0.57;;
82265;SDS011;71866;53.340;-6.308;2024-01-15T07:18:01;5.68;;;0.80;;
82265;SDS011;71866;53.340;-6.308;2024-01-15T07:20:28;1.30;;;0.68;;
82265;SDS011;71866;53.340;-6.308;2024-01-15T07:22:56;4.07;;;0.98;;
82265;SDS011;71866;53.340;-6.308;2024-01-15T07:25:22;3.90;;;1.02;;
82265;SDS011;71866;53.340;-6.308;2024-01-15T07:27:49;3.05;;;0.85;;
82265;SDS011;71866;53.340;-6.308;2024-01-15T07:30:17;3.55;;;0.82;;
82265;SDS011;71866;53.340;-6.308;2024-01-15T07:32:43;5.13;;;1.42;;
82265;SDS011;71866;53.340;-6.308;2024-01-15T07:35:10;6.85;;;0.80;;
82265;SDS011;71866;53.340;-6.308;2024-01-15T07:37:38;4.57;;;1.02;;
82265;SDS011;71866;53.340;-6.308;2024-01-15T07:40:06;3.35;;;0.95;;
82265;SDS011;71866;53.340;-6.308;2024-01-15T07:42:35;2.90;;;0.82;;
82265;SDS011;71866;53.340;-6.308;2024-01-15T07:45:06;3.17;;;1.08;;
82265;SDS011;71866;53.340;-6.308;2024-01-15T07:47:37;4.32;;;0.93;;
82265;SDS011;71866;53.340;-6.308;2024-01-15T07:50:10;5.03;;;0.93;;
82265;SDS011;71866;53.340;-6.308;2024-01-15T07:52:41;1.40;;;0.70;;
82265;SDS011;71866;53.340;-6.308;2024-01-15T07:55:08;2.97;;;0.68;;
82265;SDS011;71866;53.340;-6.308;2024-01-15T07:57:36;2.90;;;0.60;;
82265;SDS011;71866;53.340;-6.308;2024-01-15T08:00:03;3.10;;;0.90;;
82265;SDS011;71866;53.340;-6.308;2024-01-15T08:02:30;2.97;;;0.75;;
82265;SDS011;71866;53.340;-6.308;2024-01-15T08:05:02;4.35;;;0.80;;
82265;SDS011;71866;53.340;-6.308;2024-01-15T08:07:29;1.85;;;0.80;;
82265;SDS011;71866;53.340;-6.308;2024-01-15T08:09:56;3.85;;;0.88;;
82265;SDS011;71866;53.340;-6.308;2024-01-15T08:12:24;4.18;;;0.60;;
82265;SDS011;71866;53.340;-6.308;2024-01-15T08:14:52;2.95;;;0.55;;
82265;SDS011;71866;53.340;-6.308;2024-01-15T08:17:19;3.85;;;0.77;;
82265;SDS011;71866;53.340;-6.308;2024-01-15T08:19:46;4.15;;;0.60;;
82265;SDS011;71866;53.340;-6.308;2024-01-15T08:22:13;5.53;;;0.68;;
82265;SDS011;71866;53.340;-6.308;2024-01-15T08:24:40;1.63;;;0.50;;
82265;SDS011;71866;53.340;-6.308;2024-01-15T08:27:07;3.00;;;0.60;;
82265;SDS011;71866;53.340;-6.308;2024-01-15T08:29:34;3.53;;;0.70;;
82265;SDS011;71866;53.340;-6.308;2024-01-15T08:32:02;2.90;;;0.63;;
82265;SDS011;71866;53.340;-6.308;2024-01-15T08:34:28;7.35;;;0.95;;
82265;SDS011;71866;53.340;-6.308;2024-01-15T08:36:57;1.77;;;0.63;;
82265;SDS011;71866;53.340;-6.308;2024-01-15T08:39:25;3.30;;;0.82;;
82265;SDS011;71866;53.340;-6.308;2024-01-15T08:41:51;6.47;;;1.40;;
82265;SDS011;71866;53.340;-6.308;2024-01-15T08:44:19;1.55;;;0.80;;
82265;SDS011;71866;53.340;-6.308;2024-01-15T08:46:47;2.80;;;0.80;;
82265;SDS011;71866;53.340;-6.308;2024-01-15T08:49:14;12.07;;;5.15;;
82265;SDS011;71866;53.340;-6.308;2024-01-15T08:51:42;6.00;;;2.53;;
82265;SDS011;71866;53.340;-6.308;2024-01-15T08:54:09;8.13;;;2.70;;
82265;SDS011;71866;53.340;-6.308;2024-01-15T08:56:37;2.80;;;1.35;;
82265;SDS011;71866;53.340;-6.308;2024-01-15T08:59:03;2.80;;;1.20;;
82265;SDS011;71866;53.340;-6.308;2024-01-15T09:01:30;9.45;;;1.98;;
82265;SDS011;71866;53.340;-6.308;2024-01-15T09:03:58;9.48;;;2.47;;
82265;SDS011;71866;53.340;-6.308;2024-01-15T09:06:24;11.75;;;3.40;;
82265;SDS011;71866;53.340;-6.308;2024-01-15T09:08:51;18.38;;;4.72;;
82265;SDS011;71866;53.340;-6.308;2024-01-15T09:11:19;16.77;;;4.47;;
82265;SDS011;71866;53.340;-6.308;2024-01-15T09:13:46;12.13;;;4.28;;
82265;SDS011;71866;53.340;-6.308;2024-01-15T09:16:13;10.50;;;2.63;;
82265;SDS011;71866;53.340;-6.308;2024-01-15T09:18:40;5.07;;;2.03;;
82265;SDS011;71866;53.340;-6.308;2024-01-15T09:21:08;7.38;;;2.45;;
82265;SDS011;71866;53.340;-6.308;2024-01-15T09:23:35;5.90;;;2.28;;
82265;SDS011;71866;53.340;-6.308;2024-01-15T09:26:02;5.40;;;2.33;;
82265;SDS011;71866;53.340;-6.308;2024-01-15T09:28:29;6.68;;;2.17;;
82265;SDS011;71866;53.340;-6.308;2024-01-15T09:30:56;6.82;;;2.17;;
82265;SDS011;71866;53.340;-6.308;2024-01-15T09:33:23;7.40;;;2.30;;
82265;SDS011;71866;53.340;-6.308;2024-01-15T09:35:51;4.60;;;1.90;;
82265;SDS011;71866;53.340;-6.308;2024-01-15T09:38:19;6.72;;;1.95;;
82265;SDS011;71866;53.340;-6.308;2024-01-15T09:40:46;6.50;;;1.88;;
82265;SDS011;71866;53.340;-6.308;2024-01-15T09:43:14;9.02;;;2.50;;
82265;SDS011;71866;53.340;-6.308;2024-01-15T09:45:41;5.35;;;2.00;;
82265;SDS011;71866;53.340;-6.308;2024-01-15T09:48:09;2.47;;;1.40;;
82265;SDS011;71866;53.340;-6.308;2024-01-15T09:50:36;5.43;;;1.95;;
82265;SDS011;71866;53.340;-6.308;2024-01-15T09:53:05;5.45;;;1.95;;
82265;SDS011;71866;53.340;-6.308;2024-01-15T09:55:32;3.63;;;1.30;;
82265;SDS011;71866;53.340;-6.308;2024-01-15T09:58:00;3.95;;;1.30;;
82265;SDS011;71866;53.340;-6.308;2024-01-15T10:00:30;3.20;;;1.08;;
82265;SDS011;71866;53.340;-6.308;2024-01-15T10:02:56;3.22;;;1.10;;
82265;SDS011;71866;53.340;-6.308;2024-01-15T10:05:24;4.47;;;0.82;;
82265;SDS011;71866;53.340;-6.308;2024-01-15T10:07:51;2.75;;;0.70;;
82265;SDS011;71866;53.340;-6.308;2024-01-15T10:10:19;5.35;;;1.00;;
82265;SDS011;71866;53.340;-6.308;2024-01-15T10:12:47;6.47;;;1.35;;
82265;SDS011;71866;53.340;-6.308;2024-01-15T10:15:15;4.15;;;1.15;;
82265;SDS011;71866;53.340;-6.308;2024-01-15T10:17:42;4.15;;;1.15;;
82265;SDS011;71866;53.340;-6.308;2024-01-15T10:20:12;3.95;;;1.10;;
82265;SDS011;71866;53.340;-6.308;2024-01-15T10:22:42;6.05;;;1.20;;
82265;SDS011;71866;53.340;-6.308;2024-01-15T10:25:11;5.72;;;1.30;;
82265;SDS011;71866;53.340;-6.308;2024-01-15T10:27:39;4.65;;;1.23;;
82265;SDS011;71866;53.340;-6.308;2024-01-15T10:30:11;3.13;;;1.00;;
82265;SDS011;71866;53.340;-6.308;2024-01-15T10:32:39;3.35;;;1.25;;
82265;SDS011;71866;53.340;-6.308;2024-01-15T10:35:06;3.83;;;1.05;;
82265;SDS011;71866;53.340;-6.308;2024-01-15T10:37:34;7.53;;;1.70;;
82265;SDS011;71866;53.340;-6.308;2024-01-15T10:40:02;7.22;;;1.65;;
82265;SDS011;71866;53.340;-6.308;2024-01-15T10:42:29;5.13;;;1.23;;
82265;SDS011;71866;53.340;-6.308;2024-01-15T10:44:55;7.55;;;1.67;;
82265;SDS011;71866;53.340;-6.308;2024-01-15T10:47:23;5.13;;;1.23;;
82265;SDS011;71866;53.340;-6.308;2024-01-15T10:49:50;2.55;;;0.90;;
82265;SDS011;71866;53.340;-6.308;2024-01-15T10:52:19;3.70;;;0.75;;
82265;SDS011;71866;53.340;-6.308;2024-01-15T10:54:47;5.63;;;1.13;;
82265;SDS011;71866;53.340;-6.308;2024-01-15T10:57:20;3.85;;;1.02;;
82265;SDS011;71866;53.340;-6.308;2024-01-15T10:59:49;5.43;;;1.05;;
82265;SDS011;71866;53.340;-6.308;2024-01-15T11:02:15;3.50;;;1.10;;
82265;SDS011;71866;53.340;-6.308;2024-01-15T11:04:43;4.53;;;0.80;;
82265;SDS011;71866;53.340;-6.308;2024-01-15T11:07:10;3.88;;;1.02;;
82265;SDS011;71866;53.340;-6.308;2024-01-15T11:09:38;4.00;;;1.10;;
82265;SDS011;71866;53.340;-6.308;2024-01-15T11:12:12;3.20;;;0.90;;
82265;SDS011;71866;53.340;-6.308;2024-01-15T11:14:41;3.50;;;0.70;;
82265;SDS011;71866;53.340;-6.308;2024-01-15T11:17:11;2.33;;;0.70;;
82265;SDS011;71866;53.340;-6.308;2024-01-15T11:19:46;3.47;;;0.80;;
82265;SDS011;71866;53.340;-6.308;2024-01-15T11:25:01;2.90;;;0.85;;
82265;SDS011;71866;53.340;-6.308;2024-01-15T11:30:08;4.32;;;1.10;;
82265;SDS011;71866;53.340;-6.308;2024-01-15T11:32:37;4.93;;;1.00;;
82265;SDS011;71866;53.340;-6.308;2024-01-15T11:35:04;4.78;;;1.00;;
82265;SDS011;71866;53.340;-6.308;2024-01-15T11:40:21;6.43;;;1.00;;
82265;SDS011;71866;53.340;-6.308;2024-01-15T11:42:48;4.05;;;1.10;;
82265;SDS011;71866;53.340;-6.308;2024-01-15T11:45:17;4.47;;;0.85;;
82265;SDS011;71866;53.340;-6.308;2024-01-15T11:50:52;4.75;;;1.00;;
82265;SDS011;71866;53.340;-6.308;2024-01-15T11:56:03;2.80;;;0.80;;
82265;SDS011;71866;53.340;-6.308;2024-01-15T11:58:40;3.63;;;0.90;;
82265;SDS011;71866;53.340;-6.308;2024-01-15T12:01:06;2.30;;;0.95;;
82265;SDS011;71866;53.340;-6.308;2024-01-15T12:03:35;3.88;;;0.90;;
82265;SDS011;71866;53.340;-6.308;2024-01-15T12:06:02;7.03;;;1.25;;
82265;SDS011;71866;53.340;-6.308;2024-01-15T12:08:33;6.57;;;0.90;;
82265;SDS011;71866;53.340;-6.308;2024-01-15T12:10:59;3.65;;;0.93;;
82265;SDS011;71866;53.340;-6.308;2024-01-15T12:13:26;5.05;;;0.85;;
82265;SDS011;71866;53.340;-6.308;2024-01-15T12:15:54;5.03;;;0.82;;
82265;SDS011;71866;53.340;-6.308;2024-01-15T12:18:21;9.35;;;1.20;;
82265;SDS011;71866;53.340;-6.308;2024-01-15T12:20:49;5.18;;;0.90;;
82265;SDS011;71866;53.340;-6.308;2024-01-15T12:23:16;3.88;;;0.80;;
82265;SDS011;71866;53.340;-6.308;2024-01-15T12:25:44;1.95;;;0.95;;
82265;SDS011;71866;53.340;-6.308;2024-01-15T12:28:12;5.13;;;0.90;;
82265;SDS011;71866;53.340;-6.308;2024-01-15T12:30:39;3.35;;;0.70;;
82265;SDS011;71866;53.340;-6.308;2024-01-15T12:33:07;4.53;;;1.20;;
82265;SDS011;71866;53.340;-6.308;2024-01-15T12:35:36;2.53;;;0.82;;
82265;SDS011;71866;53.340;-6.308;2024-01-15T12:38:04;4.25;;;1.00;;
82265;SDS011;71866;53.340;-6.308;2024-01-15T12:40:32;3.30;;;0.77;;
82265;SDS011;71866;53.340;-6.308;2024-01-15T12:42:59;3.75;;;0.73;;
82265;SDS011;71866;53.340;-6.308;2024-01-15T12:45:27;5.07;;;1.10;;
82265;SDS011;71866;53.340;-6.308;2024-01-15T12:47:55;5.85;;;1.08;;
82265;SDS011;71866;53.340;-6.308;2024-01-15T12:50:24;4.63;;;1.17;;
82265;SDS011;71866;53.340;-6.308;2024-01-15T12:52:52;3.58;;;1.00;;
82265;SDS011;71866;53.340;-6.308;2024-01-15T12:55:19;4.40;;;0.77;;
82265;SDS011;71866;53.340;-6.308;2024-01-15T12:57:47;4.70;;;1.13;;
82265;SDS011;71866;53.340;-6.308;2024-01-15T13:00:14;5.22;;;1.42;;
82265;SDS011;71866;53.340;-6.308;2024-01-15T13:02:42;3.65;;;1.08;;
82265;SDS011;71866;53.340;-6.308;2024-01-15T13:05:10;5.80;;;1.20;;
82265;SDS011;71866;53.340;-6.308;2024-01-15T13:07:41;3.53;;;0.80;;
82265;SDS011;71866;53.340;-6.308;2024-01-15T13:10:08;2.83;;;1.13;;
82265;SDS011;71866;53.340;-6.308;2024-01-15T13:12:36;4.40;;;1.50;;
82265;SDS011;71866;53.340;-6.308;2024-01-15T13:15:04;5.20;;;1.50;;
82265;SDS011;71866;53.340;-6.308;2024-01-15T13:17:32;8.60;;;1.67;;
82265;SDS011;71866;53.340;-6.308;2024-01-15T13:19:59;5.72;;;1.10;;
82265;SDS011;71866;53.340;-6.308;2024-01-15T13:22:27;6.22;;;1.80;;
82265;SDS011;71866;53.340;-6.308;2024-01-15T13:24:54;6.80;;;1.90;;
82265;SDS011;71866;53.340;-6.308;2024-01-15T13:27:21;5.65;;;2.13;;
82265;SDS011;71866;53.340;-6.308;2024-01-15T13:29:49;7.15;;;1.23;;
82265;SDS011;71866;53.340;-6.308;2024-01-15T13:32:17;6.95;;;1.48;;
82265;SDS011;71866;53.340;-6.308;2024-01-15T13:34:51;4.00;;;1.77;;
82265;SDS011;71866;53.340;-6.308;2024-01-15T13:37:18;5.18;;;1.60;;
82265;SDS011;71866;53.340;-6.308;2024-01-15T13:39:44;6.45;;;1.30;;
82265;SDS011;71866;53.340;-6.308;2024-01-15T13:42:12;2.47;;;1.60;;
82265;SDS011;71866;53.340;-6.308;2024-01-15T13:44:39;5.38;;;1.35;;
82265;SDS011;71866;53.340;-6.308;2024-01-15T13:49:35;5.45;;;1.20;;
82265;SDS011;71866;53.340;-6.308;2024-01-15T13:52:02;4.95;;;0.98;;
82265;SDS011;71866;53.340;-6.308;2024-01-15T13:54:30;3.90;;;1.10;;
82265;SDS011;71866;53.340;-6.308;2024-01-15T13:57:16;5.63;;;1.42;;
82265;SDS011;71866;53.340;-6.308;2024-01-15T13:59:46;4.38;;;1.40;;
82265;SDS011;71866;53.340;-6.308;2024-01-15T14:02:13;3.55;;;1.60;;
82265;SDS011;71866;53.340;-6.308;2024-01-15T14:04:45;3.38;;;1.30;;
82265;SDS011;71866;53.340;-6.308;2024-01-15T14:07:14;4.13;;;1.02;;
82265;SDS011;71866;53.340;-6.308;2024-01-15T14:09:40;8.00;;;1.17;;
82265;SDS011;71866;53.340;-6.308;2024-01-15T14:12:08;4.38;;;1.00;;
82265;SDS011;71866;53.340;-6.308;2024-01-15T14:14:35;4.85;;;1.17;;
82265;SDS011;71866;53.340;-6.308;2024-01-15T14:17:02;4.05;;;1.23;;
82265;SDS011;71866;53.340;-6.308;2024-01-15T14:19:29;2.80;;;1.02;;
82265;SDS011;71866;53.340;-6.308;2024-01-15T14:21:57;5.40;;;1.00;;
82265;SDS011;71866;53.340;-6.308;2024-01-15T14:24:23;2.33;;;1.00;;
82265;SDS011;71866;53.340;-6.308;2024-01-15T14:26:50;2.45;;;1.15;;
82265;SDS011;71866;53.340;-6.308;2024-01-15T14:29:18;5.03;;;1.00;;
82265;SDS011;71866;53.340;-6.308;2024-01-15T14:31:44;3.47;;;0.85;;
82265;SDS011;71866;53.340;-6.308;2024-01-15T14:34:12;8.70;;;2.30;;
82265;SDS011;71866;53.340;-6.308;2024-01-15T14:36:39;5.18;;;1.92;;
82265;SDS011;71866;53.340;-6.308;2024-01-15T14:39:07;6.85;;;1.45;;
82265;SDS011;71866;53.340;-6.308;2024-01-15T14:41:35;4.78;;;1.02;;
82265;SDS011;71866;53.340;-6.308;2024-01-15T14:44:03;5.00;;;1.30;;
82265;SDS011;71866;53.340;-6.308;2024-01-15T14:46:32;4.10;;;1.23;;
82265;SDS011;71866;53.340;-6.308;2024-01-15T14:48:59;3.50;;;0.98;;
82265;SDS011;71866;53.340;-6.308;2024-01-15T14:51:27;3.22;;;1.00;;